Time;durP1;ratioP1;P1;durP2;ratioP2;P2;SDS_P1;SDS_P2;PMS_P1;PMS_P2;Temp;Humidity;BMP_temperature;BMP_pressure;BME280_temperature;BME280_humidity;BME280_pressure;Samples;Min_cycle;Max_cycle;Signal;HPM_P1;HPM_P2
2024/01/11 00:02:16;;;;;;;;;;;;;;;-4.84;100.00;97287.66;5063498;28;20003;-69
2024/01/11 00:04:43;;;;;;;;;;;;;;;-4.88;100.00;97282.84;5046383;28;19944;-69
2024/01/11 00:07:09;;;;;;;;;;;;;;;-4.92;100.00;97283.03;5064618;28;19941;-70
2024/01/11 00:09:39;;;;;;;;;;;;;;;-4.95;100.00;97290.13;5064015;28;19985;-70
2024/01/11 00:12:05;;;;;;;;;;;;;;;-4.96;100.00;97291.03;5030410;28;20213;-73
2024/01/11 00:14:31;;;;;;;;;;;;;;;-4.96;100.00;97286.72;5045818;28;19945;-73
2024/01/11 00:16:57;;;;;;;;;;;;;;;-4.97;100.00;97277.41;5026183;28;19966;-73
2024/01/11 00:19:23;;;;;;;;;;;;;;;-4.97;100.00;97290.22;5042609;28;19949;-72
2024/01/11 00:21:49;;;;;;;;;;;;;;;-4.97;100.00;97297.06;5043149;28;19945;-73
2024/01/11 00:24:14;;;;;;;;;;;;;;;-4.97;100.00;97292.75;5042915;28;19932;-73
2024/01/11 00:26:41;;;;;;;;;;;;;;;-4.96;100.00;97291.03;5043519;28;19939;-73
2024/01/11 00:29:07;;;;;;;;;;;;;;;-4.97;100.00;97294.50;5043533;28;20014;-73
2024/01/11 00:31:33;;;;;;;;;;;;;;;-4.97;100.00;97291.97;5026184;28;19946;-76
2024/01/11 00:33:59;;;;;;;;;;;;;;;-4.98;100.00;97303.09;5044091;28;19956;-75
2024/01/11 00:36:25;;;;;;;;;;;;;;;-4.98;100.00;97297.97;5026222;28;19939;-76
2024/01/11 00:38:51;;;;;;;;;;;;;;;-5.01;100.00;97288.78;5026147;28;20281;-77
2024/01/11 00:41:16;;;;;;;;;;;;;;;-5.04;100.00;97286.44;5026938;28;19937;-76
2024/01/11 00:43:42;;;;;;;;;;;;;;;-5.04;100.00;97286.44;5026145;28;19939;-76
2024/01/11 00:46:08;;;;;;;;;;;;;;;-5.05;100.00;97283.97;5027030;28;19938;-78
2024/01/11 00:48:34;;;;;;;;;;;;;;;-5.07;100.00;97285.78;5042774;28;19973;-70
2024/01/11 00:51:00;;;;;;;;;;;;;;;-5.08;100.00;97287.53;5046329;28;19941;-70
2024/01/11 00:53:30;;;;;;;;;;;;;;;-5.11;100.00;97280.88;5029959;28;19980;-69
2024/01/11 00:55:59;;;;;;;;;;;;;;;-5.12;100.00;97273.31;5047531;28;20080;-69
2024/01/11 00:58:25;;;;;;;;;;;;;;;-5.15;100.00;97281.97;5030713;28;19939;-69
2024/01/11 01:00:52;;;;;;;;;;;;;;;-5.16;100.00;97285.47;5047227;28;20269;-69
2024/01/11 01:03:21;;;;;;;;;;;;;;;-5.18;100.00;97287.31;5047537;28;19938;-72
2024/01/11 01:05:47;;;;;;;;;;;;;;;-5.19;100.00;97295.88;5047922;28;19935;-73
2024/01/11 01:08:14;;;;;;;;;;;;;;;-5.22;100.00;97295.28;5047321;28;19993;-74
2024/01/11 01:10:40;;;;;;;;;;;;;;;-5.23;100.00;97294.44;5047223;28;20134;-73
2024/01/11 01:13:06;;;;;;;;;;;;;;;-5.23;100.00;97294.44;5048062;28;19961;-73
2024/01/11 01:15:32;;;;;;;;;;;;;;;-5.24;100.00;97285.16;5048925;28;20009;-73
2024/01/11 01:17:57;;;;;;;;;;;;;;;-5.24;100.00;97299.66;5068021;28;19940;-73
2024/01/11 01:21:00;;;;;;;;;;;;;;;-5.26;100.00;97299.75;5049419;28;20184;-73
2024/01/11 01:23:26;;;;;;;;;;;;;;;-5.27;100.00;97302.41;5049184;28;19946;-77
2024/01/11 01:25:52;;;;;;;;;;;;;;;-5.29;100.00;97307.66;5067062;28;19956;-70
2024/01/11 01:28:18;;;;;;;;;;;;;;;-5.28;100.00;97311.00;5049328;28;19966;-69
2024/01/11 01:31:02;;;;;;;;;;;;;;;-5.30;100.00;97311.09;5067258;28;19936;-69
2024/01/11 01:33:28;;;;;;;;;;;;;;;-5.33;100.00;97319.78;5049117;28;20022;-69
2024/01/11 01:35:54;;;;;;;;;;;;;;;-5.35;100.00;97315.69;5049197;28;19938;-69
2024/01/11 01:38:20;;;;;;;;;;;;;;;-5.38;100.00;97316.69;5033258;28;19945;-69
2024/01/11 01:40:46;;;;;;;;;;;;;;;-5.41;100.00;97316.91;5048882;28;19937;-69
2024/01/11 01:43:12;;;;;;;;;;;;;;;-5.43;100.00;97312.81;5032439;28;19968;-73
2024/01/11 01:45:38;;;;;;;;;;;;;;;-5.44;100.00;97316.25;5067453;28;19935;-73
2024/01/11 01:48:04;;;;;;;;;;;;;;;-5.44;100.00;97311.97;5067138;28;19948;-73
2024/01/11 01:50:31;;;;;;;;;;;;;;;-5.45;100.00;97314.63;5049657;28;20164;-74
2024/01/11 01:52:57;;;;;;;;;;;;;;;-5.46;100.00;97312.97;5066446;28;19950;-73
2024/01/11 01:55:25;;;;;;;;;;;;;;;-5.48;100.00;97314.81;5048861;28;19959;-73
2024/01/11 01:57:51;;;;;;;;;;;;;;;-5.49;100.00;97318.31;5066505;28;20122;-73
2024/01/11 02:00:17;;;;;;;;;;;;;;;-5.50;100.00;97317.50;5048972;28;19941;-73
2024/01/11 02:02:47;;;;;;;;;;;;;;;-5.53;100.00;97313.38;5048152;28;19936;-73
2024/01/11 02:05:13;;;;;;;;;;;;;;;-5.55;100.00;97314.38;5066293;28;20280;-73
2024/01/11 02:07:40;;;;;;;;;;;;;;;-5.56;100.00;97326.34;5048483;28;19945;-73
2024/01/11 02:10:07;;;;;;;;;;;;;;;-5.57;100.00;97319.59;5032713;28;19943;-73
2024/01/11 02:12:35;;;;;;;;;;;;;;;-5.58;100.00;97330.72;5066363;28;19937;-73
2024/01/11 02:15:03;;;;;;;;;;;;;;;-5.60;100.00;97326.66;5049060;28;19950;-73
2024/01/11 02:17:29;;;;;;;;;;;;;;;-5.62;100.00;97324.19;5066020;28;19973;-73
2024/01/11 02:19:55;;;;;;;;;;;;;;;-5.63;100.00;97337.03;5066237;28;19949;-74
2024/01/11 02:22:31;;;;;;;;;;;;;;;-5.65;100.00;97333.75;5048916;28;19940;-76
2024/01/11 02:24:58;;;;;;;;;;;;;;;-5.66;100.00;97334.69;5032418;28;19943;-75
2024/01/11 02:27:24;;;;;;;;;;;;;;;-5.67;100.00;97340.69;5048708;28;20116;-76
2024/01/11 02:29:50;;;;;;;;;;;;;;;-5.69;100.00;97339.97;5031613;28;19948;-74
2024/01/11 02:32:15;;;;;;;;;;;;;;;-5.71;100.00;97324.75;5032206;28;19988;-76
2024/01/11 02:34:43;;;;;;;;;;;;;;;-5.70;100.00;97334.03;5031541;28;19959;-76
2024/01/11 02:37:09;;;;;;;;;;;;;;;-5.71;100.00;97325.56;5048576;28;19942;-73
2024/01/11 02:39:35;;;;;;;;;;;;;;;-5.71;100.00;97330.69;5065601;28;19996;-76
2024/01/11 02:42:01;;;;;;;;;;;;;;;-5.72;100.00;97338.44;5065630;28;20241;-76
2024/01/11 02:44:26;;;;;;;;;;;;;;;-5.74;100.00;97337.69;5047729;28;19943;-76
2024/01/11 02:46:52;;;;;;;;;;;;;;;-5.75;100.00;97333.53;5065980;28;19962;-76
2024/01/11 02:49:18;;;;;;;;;;;;;;;-5.76;100.00;97331.88;5065950;28;20096;-77
2024/01/11 02:51:44;;;;;;;;;;;;;;;-5.77;100.00;97335.34;5066197;28;19994;-77
2024/01/11 02:54:10;;;;;;;;;;;;;;;-5.77;100.00;97335.34;5047597;28;20148;-72
2024/01/11 02:56:36;;;;;;;;;;;;;;;-5.80;100.00;97330.41;5065343;28;19943;-73
2024/01/11 02:59:02;;;;;;;;;;;;;;;-5.80;100.00;97328.66;5031869;28;19944;-71
2024/01/11 03:01:28;;;;;;;;;;;;;;;-5.81;100.00;97331.34;5031713;28;19969;-72
2024/01/11 03:03:54;;;;;;;;;;;;;;;-5.84;100.00;97324.66;5031664;28;19952;-72
2024/01/11 03:06:22;;;;;;;;;;;;;;;-5.86;100.00;97326.50;5047222;28;19943;-72
2024/01/11 03:08:48;;;;;;;;;;;;;;;-5.86;100.00;97328.22;5047524;28;20249;-73
2024/01/11 03:11:14;;;;;;;;;;;;;;;-5.90;100.00;97319.94;5047248;28;19944;-72
2024/01/11 03:13:40;;;;;;;;;;;;;;;-5.91;100.00;97316.56;5046941;28;19995;-76
2024/01/11 03:16:06;;;;;;;;;;;;;;;-5.91;100.00;97325.97;5047452;28;19969;-69
2024/01/11 03:18:32;;;;;;;;;;;;;;;-5.92;100.00;97330.25;5047799;28;19994;-68
2024/01/11 03:20:57;;;;;;;;;;;;;;;-5.93;100.00;97310.72;5047128;28;19939;-69
2024/01/11 03:23:23;;;;;;;;;;;;;;;-5.93;100.00;97309.91;5047086;28;19951;-69
2024/01/11 03:25:50;;;;;;;;;;;;;;;-5.94;100.00;97300.63;5047765;28;19942;-69
2024/01/11 03:28:15;;;;;;;;;;;;;;;-5.96;100.00;97303.28;5064702;28;19943;-69
2024/01/11 03:30:42;;;;;;;;;;;;;;;-5.99;100.00;97308.56;5046810;28;19942;-81
2024/01/11 03:33:08;;;;;;;;;;;;;;;-6.01;100.00;97307.03;5064525;28;19960;-74
2024/01/11 03:35:34;;;;;;;;;;;;;;;-6.02;100.00;97298.56;5047318;28;20037;-81
2024/01/11 03:38:00;;;;;;;;;;;;;;;-6.02;100.00;97292.66;5065076;28;19939;-81
2024/01/11 03:40:26;;;;;;;;;;;;;;;-6.02;100.00;97293.47;5064454;28;19944;-81
2024/01/11 03:42:52;;;;;;;;;;;;;;;-6.03;100.00;97296.91;5064388;28;19941;-81
2024/01/11 03:45:21;;;;;;;;;;;;;;;-6.05;100.00;97301.28;5046814;28;19936;-81
2024/01/11 03:47:47;;;;;;;;;;;;;;;-6.08;100.00;97306.59;5064934;28;19945;-80
2024/01/11 03:50:12;;;;;;;;;;;;;;;-6.08;100.00;97305.78;5047289;28;19944;-68
2024/01/11 03:52:39;;;;;;;;;;;;;;;-6.09;100.00;97299.84;5047228;28;20014;-76
2024/01/11 03:55:05;;;;;;;;;;;;;;;-6.10;100.00;97305.88;5029929;28;19964;-76
2024/01/11 03:57:31;;;;;;;;;;;;;;;-6.10;100.00;97307.59;5046518;28;20128;-75
2024/01/11 03:59:58;;;;;;;;;;;;;;;-6.13;100.00;97306.06;5029805;28;19951;-76
2024/01/11 04:02:24;;;;;;;;;;;;;;;-6.12;100.00;97300.03;5046414;28;19942;-76
2024/01/11 04:04:50;;;;;;;;;;;;;;;-6.12;100.00;97302.59;5030661;28;19939;-75
2024/01/11 04:07:16;;;;;;;;;;;;;;;-6.08;100.00;97303.22;5046206;28;19943;-73
2024/01/11 04:09:42;;;;;;;;;;;;;;;-6.07;100.00;97312.50;5046317;28;19961;-69
2024/01/11 04:12:08;;;;;;;;;;;;;;;-6.06;100.00;97314.16;5030668;28;20207;-73
2024/01/11 04:14:37;;;;;;;;;;;;;;;-6.02;100.00;97319.00;5064737;28;19955;-73
2024/01/11 04:17:03;;;;;;;;;;;;;;;-6.01;100.00;97315.50;5063997;28;19966;-73
2024/01/11 04:19:29;;;;;;;;;;;;;;;-5.99;100.00;97310.31;5046278;28;19948;-73
2024/01/11 04:21:55;;;;;;;;;;;;;;;-6.00;100.00;97313.81;5046146;28;19939;-73
2024/01/11 04:24:21;;;;;;;;;;;;;;;-6.00;100.00;97317.16;5064019;28;20102;-72
2024/01/11 04:26:46;;;;;;;;;;;;;;;-6.01;100.00;97315.50;5064134;28;19942;-73
2024/01/11 04:29:12;;;;;;;;;;;;;;;-6.02;100.00;97308.78;5063931;28;19942;-68
2024/01/11 04:31:38;;;;;;;;;;;;;;;-6.04;100.00;97312.34;5063814;28;19941;-69
2024/01/11 04:34:04;;;;;;;;;;;;;;;-6.07;100.00;97321.00;5046576;28;19950;-69
2024/01/11 04:36:30;;;;;;;;;;;;;;;-6.07;100.00;97328.66;5063364;28;20126;-69
2024/01/11 04:38:55;;;;;;;;;;;;;;;-6.07;100.00;97328.66;5063801;28;19935;-69
2024/01/11 04:41:21;;;;;;;;;;;;;;;-6.06;100.00;97329.50;5046669;28;19945;-69
2024/01/11 04:43:47;;;;;;;;;;;;;;;-6.04;100.00;97327.66;5045992;28;19946;-69
2024/01/11 04:46:13;;;;;;;;;;;;;;;-6.04;100.00;97328.47;5030373;28;19965;-77
2024/01/11 04:48:39;;;;;;;;;;;;;;;-6.04;100.00;97330.22;5046542;28;20122;-80
2024/01/11 04:51:05;;;;;;;;;;;;;;;-6.09;100.00;97325.38;5046716;28;19939;-81
2024/01/11 04:53:31;;;;;;;;;;;;;;;-6.09;100.00;97327.09;5064332;28;19954;-82
2024/01/11 04:55:56;;;;;;;;;;;;;;;-6.08;100.00;97327.03;5064145;28;20217;-82
2024/01/11 04:58:22;;;;;;;;;;;;;;;-6.08;100.00;97319.38;5063599;28;19943;-82
2024/01/11 05:00:48;;;;;;;;;;;;;;;-6.07;100.00;97322.72;5063525;28;20002;-82
2024/01/11 05:03:14;;;;;;;;;;;;;;;-6.08;100.00;97321.91;5064342;28;19937;-76
2024/01/11 05:05:40;;;;;;;;;;;;;;;-6.07;100.00;97326.09;5029656;28;19976;-73
2024/01/11 05:08:06;;;;;;;;;;;;;;;-6.05;100.00;97326.81;5030057;28;19974;-73
2024/01/11 05:10:32;;;;;;;;;;;;;;;-6.06;100.00;97319.28;5029184;28;19934;-73
2024/01/11 05:12:58;;;;;;;;;;;;;;;-6.04;100.00;97313.16;5063451;28;19936;-74
2024/01/11 05:15:24;;;;;;;;;;;;;;;-6.06;100.00;97312.44;5045536;28;19955;-73
2024/01/11 05:17:50;;;;;;;;;;;;;;;-6.07;100.00;97308.22;5046434;28;19943;-72
2024/01/11 05:20:16;;;;;;;;;;;;;;;-6.07;100.00;97315.06;5029778;28;19955;-73
2024/01/11 05:22:42;;;;;;;;;;;;;;;-6.09;100.00;97310.03;5029933;28;19943;-80
2024/01/11 05:25:08;;;;;;;;;;;;;;;-6.13;100.00;97316.28;5046410;28;19942;-73
2024/01/11 05:27:34;;;;;;;;;;;;;;;-6.14;100.00;97319.72;5063299;28;19939;-75
2024/01/11 05:29:59;;;;;;;;;;;;;;;-6.16;100.00;97319.81;5063299;28;20006;-73
2024/01/11 05:32:25;;;;;;;;;;;;;;;-6.17;100.00;97322.47;5063811;28;19938;-73
2024/01/11 05:34:51;;;;;;;;;;;;;;;-6.21;100.00;97321.84;5063372;28;19952;-74
2024/01/11 05:37:17;;;;;;;;;;;;;;;-6.22;100.00;97332.13;5067657;28;20093;-74
2024/01/11 05:39:43;;;;;;;;;;;;;;;-6.22;100.00;97332.13;5067421;28;19941;-72
2024/01/11 05:42:09;;;;;;;;;;;;;;;-6.23;100.00;97338.16;5033287;28;19986;-79
2024/01/11 05:44:34;;;;;;;;;;;;;;;-6.23;100.00;97343.28;5066642;28;19935;-80
2024/01/11 05:47:00;;;;;;;;;;;;;;;-6.23;100.00;97341.53;5066692;28;19939;-81
2024/01/11 05:49:26;;;;;;;;;;;;;;;-6.24;100.00;97347.53;5033031;28;19941;-81
2024/01/11 05:51:52;;;;;;;;;;;;;;;-6.25;100.00;97350.19;5066566;28;19946;-81
2024/01/11 05:54:18;;;;;;;;;;;;;;;-6.26;100.00;97354.47;5049523;28;19951;-82
2024/01/11 05:56:44;;;;;;;;;;;;;;;-6.26;100.00;97353.66;5067273;28;20216;-80
2024/01/11 05:59:10;;;;;;;;;;;;;;;-6.26;100.00;97348.53;5066364;28;20229;-69
2024/01/11 06:01:42;;;;;;;;;;;;;;;-6.25;100.00;97357.84;5049126;28;20027;-74
2024/01/11 06:04:08;;;;;;;;;;;;;;;-6.26;100.00;97363.84;5067110;28;19943;-73
2024/01/11 06:06:34;;;;;;;;;;;;;;;-6.25;100.00;97366.31;5066605;28;19939;-75
2024/01/11 06:09:00;;;;;;;;;;;;;;;-6.25;100.00;97365.50;5066212;28;19978;-73
2024/01/11 06:11:26;;;;;;;;;;;;;;;-6.26;100.00;97366.41;5066979;28;20086;-73
2024/01/11 06:13:52;;;;;;;;;;;;;;;-6.27;100.00;97373.25;5048235;28;19957;-73
2024/01/11 06:16:17;;;;;;;;;;;;;;;-6.25;100.00;97373.16;5066424;28;19963;-74
2024/01/11 06:18:44;;;;;;;;;;;;;;;-6.23;100.00;97384.94;5066044;28;19942;-73
2024/01/11 06:21:10;;;;;;;;;;;;;;;-6.22;100.00;97376.34;5032513;28;20109;-82
2024/01/11 06:23:36;;;;;;;;;;;;;;;-6.22;100.00;97381.44;5066532;28;19941;-81
2024/01/11 06:26:03;;;;;;;;;;;;;;;-6.22;100.00;97372.97;5065908;28;19940;-80
2024/01/11 06:28:28;;;;;;;;;;;;;;;-6.25;100.00;97371.44;5065845;28;19940;-80
2024/01/11 06:30:54;;;;;;;;;;;;;;;-6.28;100.00;97369.03;5066373;28;19957;-80
2024/01/11 06:33:20;;;;;;;;;;;;;;;-6.29;100.00;97367.41;5066547;28;20137;-80
2024/01/11 06:35:46;;;;;;;;;;;;;;;-6.26;100.00;97366.41;5065721;28;20160;-69
2024/01/11 06:38:12;;;;;;;;;;;;;;;-6.27;100.00;97375.81;5065701;28;20225;-79
2024/01/11 06:40:38;;;;;;;;;;;;;;;-6.26;100.00;97372.31;5065912;28;20185;-78
2024/01/11 06:43:03;;;;;;;;;;;;;;;-6.28;100.00;97379.25;5065629;28;19951;-79
2024/01/11 06:45:29;;;;;;;;;;;;;;;-6.29;100.00;97369.97;5047924;28;19943;-79
2024/01/11 06:47:56;;;;;;;;;;;;;;;-6.29;100.00;97369.97;5065406;28;19946;-79
2024/01/11 06:50:22;;;;;;;;;;;;;;;-6.28;100.00;97378.44;5065462;28;19938;-79
2024/01/11 06:52:48;;;;;;;;;;;;;;;-6.30;100.00;97370.88;5065193;28;20013;-74
2024/01/11 06:55:14;;;;;;;;;;;;;;;-6.30;100.00;97377.72;5066046;28;20113;-73
2024/01/11 06:57:40;;;;;;;;;;;;;;;-6.33;100.00;97379.53;5065871;28;20215;-73
2024/01/11 07:00:07;;;;;;;;;;;;;;;-6.34;100.00;97383.00;5048228;28;19990;-73
2024/01/11 07:02:33;;;;;;;;;;;;;;;-6.35;100.00;97383.91;5065223;28;19943;-73
2024/01/11 07:05:00;;;;;;;;;;;;;;;-6.35;100.00;97388.19;5047287;28;20449;-72
2024/01/11 07:07:27;;;;;;;;;;;;;;;-6.38;100.00;97385.84;5065099;28;19940;-73
2024/01/11 07:09:55;;;;;;;;;;;;;;;-6.38;100.00;97381.53;5047288;28;19968;-73
2024/01/11 07:12:21;;;;;;;;;;;;;;;-6.36;100.00;97373.81;5065054;28;19941;-69
2024/01/11 07:14:47;;;;;;;;;;;;;;;-6.37;100.00;97378.06;5047059;28;19961;-69
2024/01/11 07:17:13;;;;;;;;;;;;;;;-6.37;100.00;97390.00;5064695;28;19972;-69
2024/01/11 07:19:38;;;;;;;;;;;;;;;-6.40;100.00;97390.22;5030596;28;19943;-68
2024/01/11 07:22:04;;;;;;;;;;;;;;;-6.42;100.00;97392.84;5065401;28;19934;-69
2024/01/11 07:24:37;;;;;;;;;;;;;;;-6.41;100.00;97401.31;5047150;28;19938;-69
2024/01/11 07:27:06;;;;;;;;;;;;;;;-6.42;100.00;97404.78;5065067;28;20136;-69
2024/01/11 07:29:33;;;;;;;;;;;;;;;-6.41;100.00;97398.75;5065322;28;19942;-73
2024/01/11 07:31:59;;;;;;;;;;;;;;;-6.41;100.00;97402.13;5047024;28;19943;-75
2024/01/11 07:34:24;;;;;;;;;;;;;;;-6.40;100.00;97413.16;5064641;28;19957;-76
2024/01/11 07:36:52;;;;;;;;;;;;;;;-6.41;100.00;97409.78;5064918;28;19938;-76
2024/01/11 07:39:18;;;;;;;;;;;;;;;-6.40;100.00;97414.00;5064555;28;19937;-76
2024/01/11 07:41:44;;;;;;;;;;;;;;;-6.37;100.00;97420.63;5046740;28;19945;-76
2024/01/11 07:44:09;;;;;;;;;;;;;;;-6.35;100.00;97424.75;5064538;28;19938;-77
2024/01/11 07:46:36;;;;;;;;;;;;;;;-6.33;100.00;97427.22;5064699;28;19944;-77
2024/01/11 07:49:04;;;;;;;;;;;;;;;-6.28;100.00;97425.19;5064431;28;19943;-74
2024/01/11 07:51:31;;;;;;;;;;;;;;;-6.20;100.00;97422.22;5064428;28;19941;-73
2024/01/11 07:53:56;;;;;;;;;;;;;;;-6.15;100.00;97438.09;5030775;28;20139;-73
2024/01/11 07:56:22;;;;;;;;;;;;;;;-6.08;100.00;97426.59;5046458;28;19940;-72
2024/01/11 07:58:48;;;;;;;;;;;;;;;-5.97;100.00;97442.09;5063369;28;19936;-73
2024/01/11 08:01:15;;;;;;;;;;;;;;;-5.83;100.00;97430.25;5064232;28;19936;-73
2024/01/11 08:03:44;;;;;;;;;;;;;;;-5.69;100.00;97440.47;5064933;28;19940;-73
2024/01/11 08:06:10;;;;;;;;;;;;;;;-5.54;100.00;97441.28;5046457;28;19936;-80
2024/01/11 08:08:39;;;;;;;;;;;;;;;-5.42;100.00;97430.28;5029723;28;19960;-81
2024/01/11 08:11:08;;;;;;;;;;;;;;;-5.26;100.00;97425.03;5064048;28;20131;-74
2024/01/11 08:13:34;;;;;;;;;;;;;;;-5.11;100.00;97434.31;5064051;28;19943;-73
2024/01/11 08:16:04;;;;;;;;;;;;;;;-4.93;100.00;97440.03;5064140;28;20286;-73
2024/01/11 08:18:30;;;;;;;;;;;;;;;-4.79;100.00;97436.56;5064509;28;19956;-74
2024/01/11 08:20:56;;;;;;;;;;;;;;;-4.65;100.00;97437.44;5063793;28;19965;-73
2024/01/11 08:23:23;;;;;;;;;;;;;;;-4.52;100.00;97433.16;5064466;28;19943;-73
2024/01/11 08:25:49;;;;;;;;;;;;;;;-4.38;100.00;97439.97;5063760;28;19941;-76
2024/01/11 08:28:15;;;;;;;;;;;;;;;-4.26;100.00;97434.03;5046158;28;20011;-76
2024/01/11 08:30:42;;;;;;;;;;;;;;;-4.13;100.00;97446.88;5064340;28;20241;-76
2024/01/11 08:33:08;;;;;;;;;;;;;;;-4.06;100.00;97470.31;5063860;28;19958;-75
2024/01/11 08:35:35;;;;;;;;;;;;;;;-4.01;100.00;97468.28;5063969;28;20139;-75
2024/01/11 08:38:01;;;;;;;;;;;;;;;-3.93;100.00;97471.16;5046102;28;19940;-76
2024/01/11 08:40:27;;;;;;;;;;;;;;;-3.88;100.00;97477.63;5029424;28;19940;-75
2024/01/11 08:42:53;;;;;;;;;;;;;;;-3.79;100.00;97465.94;5046061;28;19942;-73
2024/01/11 08:45:19;;;;;;;;;;;;;;;-3.67;100.00;97465.09;5046822;28;19935;-76
2024/01/11 08:47:45;;;;;;;;;;;;;;;-3.54;100.00;97456.59;5063656;28;19938;-81
2024/01/11 08:50:15;;;;;;;;;;;;;;;-3.47;100.00;97450.91;5064391;28;19958;-81
2024/01/11 08:52:41;;;;;;;;;;;;;;;-3.37;100.00;97458.78;5063633;28;19953;-82
2024/01/11 08:55:07;;;;;;;;;;;;;;;-3.31;100.00;97447.31;5045117;28;19963;-86
2024/01/11 08:57:35;;;;;;;;;;;;;;;-3.32;100.00;97448.22;5063842;28;19947;-82
2024/01/11 09:00:01;;;;;;;;;;;;;;;-3.29;100.00;97453.16;5064249;28;19949;-83
2024/01/11 09:02:27;;;;;;;;;;;;;;;-3.25;100.00;97449.44;5029930;28;19951;-71
2024/01/11 09:04:53;;;;;;;;;;;;;;;-3.21;100.00;97452.59;5064089;28;19936;-76
2024/01/11 09:07:19;;;;;;;;;;;;;;;-3.13;100.00;97458.00;5063496;28;19934;-76
2024/01/11 09:09:45;;;;;;;;;;;;;;;-3.03;100.00;97464.16;5045761;28;19956;-75
2024/01/11 09:12:11;;;;;;;;;;;;;;;-2.92;100.00;97463.38;5067803;28;20098;-74
2024/01/11 09:14:37;;;;;;;;;;;;;;;-2.79;100.00;97450.50;5067679;28;19957;-74
2024/01/11 09:17:06;;;;;;;;;;;;;;;-2.73;100.00;97453.47;5067356;28;19964;-75
2024/01/11 09:19:33;;;;;;;;;;;;;;;-2.67;100.00;97465.03;5067170;28;19939;-74
2024/01/11 09:21:59;;;;;;;;;;;;;;;-2.57;100.00;97462.63;5067739;28;19940;-73
2024/01/11 09:24:25;;;;;;;;;;;;;;;-2.49;100.00;97456.00;5050085;28;19939;-75
2024/01/11 09:26:51;;;;;;;;;;;;;;;-2.55;100.00;97428.19;5049304;28;20011;-76
2024/01/11 09:29:17;;;;;;;;;;;;;;;-2.55;100.00;97437.66;5066994;28;20000;-76
2024/01/11 09:31:43;;;;;;;;;;;;;;;-2.42;100.00;97446.09;5049662;28;19949;-75
2024/01/11 09:34:09;;;;;;;;;;;;;;;-2.28;100.00;97451.06;5067424;28;19948;-76
2024/01/11 09:36:36;;;;;;;;;;;;;;;-2.18;100.00;97445.22;5049486;28;19978;-75
2024/01/11 09:39:02;;;;;;;;;;;;;;;-2.10;100.00;97450.63;5049113;28;19979;-73
2024/01/11 09:41:29;;;;;;;;;;;;;;;-2.07;100.00;97443.50;5049654;28;20238;-90
2024/01/11 09:43:58;;;;;;;;;;;;;;;-2.01;100.00;97438.88;5067766;28;20107;-89
2024/01/11 09:46:25;;;;;;;;;;;;;;;-1.99;100.00;97440.38;5067121;28;19944;-90
2024/01/11 09:48:51;;;;;;;;;;;;;;;-1.94;100.00;97437.47;5067482;28;19991;-89
2024/01/11 09:51:17;;;;;;;;;;;;;;;-1.90;100.00;97437.09;5067549;28;19936;-90
2024/01/11 09:53:43;;;;;;;;;;;;;;;-1.78;100.00;97445.66;5067777;28;19946;-93
2024/01/11 09:56:10;;;;;;;;;;;;;;;-1.66;100.00;97425.91;5068421;28;19952;-93
2024/01/11 09:58:39;;;;;;;;;;;;;;;-1.48;100.00;97428.81;5066737;28;19935;-72
2024/01/11 10:01:09;;;;;;;;;;;;;;;-1.31;100.00;97422.38;5066373;28;19934;-75
2024/01/11 10:03:35;;;;;;;;;;;;;;;-1.08;100.00;97420.56;5067105;28;19941;-75
2024/01/11 10:06:02;;;;;;;;;;;;;;;-0.90;100.00;97413.97;5032018;28;20183;-75
2024/01/11 10:08:29;;;;;;;;;;;;;;;-0.72;100.00;97403.13;5066186;28;19954;-74
2024/01/11 10:10:55;;;;;;;;;;;;;;;-0.60;100.00;97391.03;5066723;28;19946;-74
2024/01/11 10:13:28;;;;;;;;;;;;;;;-0.49;100.00;97386.63;5048771;28;19943;-75
2024/01/11 10:16:08;;;;;;;;;;;;;;;-0.41;100.00;97371.34;5065794;28;19961;-73
2024/01/11 10:18:33;;;;;;;;;;;;;;;-0.38;100.00;97379.78;5048349;28;19942;-74
2024/01/11 10:20:59;;;;;;;;;;;;;;;-0.32;100.00;97387.81;5066088;28;19941;-74
2024/01/11 10:23:28;;;;;;;;;;;;;;;-0.25;100.00;97391.53;5065018;28;20107;-74
2024/01/11 10:25:56;;;;;;;;;;;;;;;-0.22;100.00;97388.69;5066703;28;20089;-74
2024/01/11 10:28:21;;;;;;;;;;;;;;;-0.21;100.00;97385.19;5065858;28;19944;-74
2024/01/11 10:30:48;;;;;;;;;;;;;;;-0.21;100.00;97379.19;5066589;28;20286;-74
2024/01/11 10:33:14;;;;;;;;;;;;;;;-0.18;100.00;97378.97;5066008;28;19943;-73
2024/01/11 10:35:39;;;;;;;;;;;;;;;-0.12;100.00;97377.66;5047860;28;19958;-73
2024/01/11 10:38:09;;;;;;;;;;;;;;;-0.05;100.00;97358.13;5048581;28;19944;-70
2024/01/11 10:40:35;;;;;;;;;;;;;;;0.02;100.00;97361.81;5066096;28;19944;-70
2024/01/11 10:43:02;;;;;;;;;;;;;;;0.07;99.56;97339.06;5048621;28;20302;-70
2024/01/11 10:45:31;;;;;;;;;;;;;;;0.13;100.00;97348.84;5047656;28;19941;-70
2024/01/11 10:48:01;;;;;;;;;;;;;;;0.12;100.00;97344.63;5065459;28;19943;-70
2024/01/11 10:50:29;;;;;;;;;;;;;;;0.17;100.00;97359.72;5065975;28;19937;-70
2024/01/11 10:53:11;;;;;;;;;;;;;;;0.22;100.00;97354.19;5065884;28;19939;-73
2024/01/11 10:55:37;;;;;;;;;;;;;;;0.30;100.00;97351.75;5047436;28;19962;-73
2024/01/11 10:58:03;;;;;;;;;;;;;;;0.57;100.00;97375.19;5065281;28;19942;-75
2024/01/11 11:00:30;;;;;;;;;;;;;;;0.74;100.00;97331.63;5031802;28;20106;-73
2024/01/11 11:02:58;;;;;;;;;;;;;;;0.83;100.00;97341.13;5047109;28;20233;-74
2024/01/11 11:05:24;;;;;;;;;;;;;;;0.96;100.00;97333.94;5047644;28;19934;-74
2024/01/11 11:07:50;;;;;;;;;;;;;;;1.04;100.00;97337.63;5047930;28;19958;-73
2024/01/11 11:10:19;;;;;;;;;;;;;;;1.01;98.92;97321.44;5065014;28;19940;-84
2024/01/11 11:12:46;;;;;;;;;;;;;;;1.00;98.77;97326.72;5047256;28;20253;-71
2024/01/11 11:15:13;;;;;;;;;;;;;;;0.99;98.31;97327.69;5064780;28;20246;-78
2024/01/11 11:17:40;;;;;;;;;;;;;;;0.97;100.00;97348.50;5047110;28;20256;-77
2024/01/11 11:20:11;;;;;;;;;;;;;;;0.98;100.00;97334.59;5065374;28;20095;-76
2024/01/11 11:22:39;;;;;;;;;;;;;;;1.06;100.00;97494.09;5065133;28;20116;-75
2024/01/11 11:25:09;;;;;;;;;;;;;;;1.75;100.00;97435.53;5065580;28;19941;-75
2024/01/11 11:27:35;;;;;;;;;;;;;;;2.02;100.00;97319.19;5065236;28;19947;-75
2024/01/11 11:30:02;;;;;;;;;;;;;;;2.06;97.09;97298.19;5065194;28;19936;-78
2024/01/11 11:32:35;;;;;;;;;;;;;;;1.95;95.57;97310.38;5064688;28;20224;-79
2024/01/11 11:35:01;;;;;;;;;;;;;;;1.79;95.46;97305.00;5064361;28;19958;-78
2024/01/11 11:37:29;;;;;;;;;;;;;;;1.61;99.45;97328.16;5047116;28;19935;-79
2024/01/11 11:39:55;;;;;;;;;;;;;;;1.55;98.80;97324.34;5064476;28;19937;-78
2024/01/11 11:42:24;;;;;;;;;;;;;;;1.57;96.12;97316.47;5064447;28;19933;-78
2024/01/11 11:44:50;;;;;;;;;;;;;;;1.57;97.30;97322.44;5063838;28;19941;-78
2024/01/11 11:47:22;;;;;;;;;;;;;;;1.56;97.04;97318.25;5065155;28;19938;-70
2024/01/11 11:50:03;;;;;;;;;;;;;;;1.57;99.12;97327.63;5064346;28;20127;-78
2024/01/11 11:52:29;;;;;;;;;;;;;;;1.65;96.97;97314.00;5047295;28;20123;-74
2024/01/11 11:54:55;;;;;;;;;;;;;;;1.61;96.36;97317.81;5047293;28;19953;-72
2024/01/11 11:57:22;;;;;;;;;;;;;;;1.60;97.61;97329.13;5046964;28;20112;-73
2024/01/11 11:59:49;;;;;;;;;;;;;;;1.59;97.07;97322.31;5046455;28;19935;-73
2024/01/11 12:02:16;;;;;;;;;;;;;;;1.60;95.31;97306.69;5064637;28;19940;-73
2024/01/11 12:04:48;;;;;;;;;;;;;;;1.58;97.26;97307.78;5046246;28;19935;-73
2024/01/11 12:07:15;;;;;;;;;;;;;;;1.63;96.95;97290.88;5064576;28;19954;-77
2024/01/11 12:09:41;;;;;;;;;;;;;;;1.69;96.54;97278.34;5063981;28;19953;-74
2024/01/11 12:12:07;;;;;;;;;;;;;;;1.73;97.67;97285.69;5064704;28;19963;-74
2024/01/11 12:14:34;;;;;;;;;;;;;;;1.75;95.17;97270.84;5046310;28;20031;-74
2024/01/11 12:17:00;;;;;;;;;;;;;;;1.74;96.00;97278.72;5029829;28;19973;-74
2024/01/11 12:19:25;;;;;;;;;;;;;;;1.74;97.35;97284.72;5046464;28;19974;-74
2024/01/11 12:21:51;;;;;;;;;;;;;;;1.76;97.30;97287.16;5064619;28;19935;-74
2024/01/11 12:24:17;;;;;;;;;;;;;;;1.75;96.66;97277.78;5046589;28;19939;-79
2024/01/11 12:26:43;;;;;;;;;;;;;;;1.77;97.65;97276.69;5046616;28;19934;-71
2024/01/11 12:29:10;;;;;;;;;;;;;;;1.85;97.63;97272.56;5063702;28;19936;-73
2024/01/11 12:31:35;;;;;;;;;;;;;;;1.94;98.15;97267.34;5064272;28;19932;-72
2024/01/11 12:34:03;;;;;;;;;;;;;;;2.06;95.53;97246.47;5063734;28;19956;-72
2024/01/11 12:36:29;;;;;;;;;;;;;;;2.16;93.78;97231.69;5064460;28;19973;-71
2024/01/11 12:38:54;;;;;;;;;;;;;;;2.09;92.95;97226.28;5063652;28;20242;-71